Time;durP1;ratioP1;P1;durP2;ratioP2;P2;SDS_P1;SDS_P2;PMS_P1;PMS_P2;Temp;Humidity;BMP_temperature;BMP_pressure;BME280_temperature;BME280_humidity;BME280_pressure;Samples;Min_cycle;Max_cycle;Signal;HPM_P1;HPM_P2
2021/06/02 00:02:44;;;;;;;25.68;15.43;;;;;;;14.39;79.63;100714.75;3554784;81;99047;-85
2021/06/02 00:07:46;;;;;;;23.30;14.70;;;;;;;14.37;79.75;100720.48;3548787;81;99862;-85
2021/06/02 00:12:48;;;;;;;21.42;14.10;;;;;;;14.34;79.93;100725.45;3532781;81;33305;-86
2021/06/02 00:17:53;;;;;;;21.57;15.17;;;;;;;14.31;80.03;100720.69;3532715;80;99256;-85
2021/06/02 00:22:56;;;;;;;26.80;16.23;;;;;;;14.24;80.70;100716.54;3542406;82;25765;-87
2021/06/02 00:27:57;;;;;;;22.98;15.55;;;;;;;14.19;80.56;100716.34;3540508;82;99375;-84
2021/06/02 00:32:59;;;;;;;23.37;14.63;;;;;;;14.06;80.80;100702.64;3519751;82;31718;-84
2021/06/02 00:38:00;;;;;;;22.13;15.00;;;;;;;14.15;80.26;100730.73;3536264;82;99195;-85
2021/06/02 00:43:04;;;;;;;21.37;15.30;;;;;;;14.12;80.78;100729.34;3539628;80;31692;-86
2021/06/02 00:48:06;;;;;;;25.82;15.05;;;;;;;14.09;80.56;100732.31;3531774;81;99594;-85
2021/06/02 00:53:09;;;;;;;24.35;13.90;;;;;;;14.08;80.76;100739.03;3501739;82;33588;-87
2021/06/02 00:58:15;;;;;;;22.90;14.73;;;;;;;14.08;80.76;100739.03;3502457;82;99039;-87
2021/06/02 01:03:23;;;;;;;23.98;13.62;;;;;;;14.09;80.25;100743.97;3537552;82;25887;-85
2021/06/02 01:08:24;;;;;;;21.57;13.70;;;;;;;14.11;80.16;100748.53;3531713;82;99326;-86
2021/06/02 01:13:29;;;;;;;21.48;13.13;;;;;;;14.09;79.96;100744.77;3559806;80;33880;-86
2021/06/02 01:18:31;;;;;;;24.32;14.55;;;;;;;14.10;79.72;100744.16;3551899;81;99326;-86
2021/06/02 01:23:32;;;;;;;20.80;13.43;;;;;;;14.09;79.24;100761.38;3535770;81;30481;-86
2021/06/02 01:28:33;;;;;;;21.23;12.50;;;;;;;14.11;79.02;100753.45;3545143;81;99245;-85
2021/06/02 01:34:08;;;;;;;20.90;13.00;;;;;;;14.09;78.65;100768.87;3560076;81;31953;-84
2021/06/02 01:39:17;;;;;;;20.48;12.50;;;;;;;14.07;78.40;100775.41;3556766;81;99007;-85
2021/06/02 01:44:46;;;;;;;18.55;11.55;;;;;;;14.04;78.06;100771.44;3552942;81;33243;-88
2021/06/02 01:50:13;;;;;;;20.53;11.83;;;;;;;14.01;78.02;100783.89;3548379;81;99633;-84
2021/06/02 01:56:11;;;;;;;20.57;13.25;;;;;;;13.97;77.86;100790.00;3550912;81;25736;-86
2021/06/02 02:01:42;;;;;;;17.60;12.58;;;;;;;13.91;77.72;100792.34;3420165;85;99356;-86
2021/06/02 02:06:54;;;;;;;21.30;13.98;;;;;;;13.84;77.57;100793.70;3525413;81;33634;-84
2021/06/02 02:12:29;;;;;;;19.92;12.45;;;;;;;13.69;77.41;100782.37;3559640;81;99326;-84
2021/06/02 02:17:55;;;;;;;23.22;12.10;;;;;;;13.79;77.34;100802.38;3552506;81;33484;-84
2021/06/02 02:23:16;;;;;;;20.40;13.22;;;;;;;13.77;77.19;100803.37;3555157;81;33936;-85
2021/06/02 02:29:11;;;;;;;18.57;11.73;;;;;;;13.71;77.84;100807.70;3541558;81;99290;-86
2021/06/02 02:34:43;;;;;;;19.90;12.68;;;;;;;13.72;77.12;100818.95;3548601;81;33264;-85
2021/06/02 02:40:12;;;;;;;20.15;12.43;;;;;;;13.71;77.14;100824.29;3547923;81;99062;-86
2021/06/02 02:45:56;;;;;;;20.27;13.10;;;;;;;13.70;76.96;100828.24;3557792;81;31386;-91
2021/06/02 02:51:30;;;;;;;21.35;12.05;;;;;;;13.71;76.87;100841.47;3550017;81;99399;-84
2021/06/02 02:57:00;;;;;;;19.42;11.15;;;;;;;13.71;76.76;100843.66;3562262;81;33274;-85
2021/06/02 03:02:40;;;;;;;19.40;11.97;;;;;;;13.72;76.50;100850.77;3489406;81;98862;-86
2021/06/02 03:07:47;;;;;;;18.87;11.90;;;;;;;13.71;76.41;100856.10;3549294;81;99342;-89
2021/06/02 03:13:12;;;;;;;19.60;11.63;;;;;;;13.71;76.19;100863.59;3551191;81;33293;-85
2021/06/02 03:18:36;;;;;;;16.77;10.45;;;;;;;13.73;75.96;100874.48;3550629;80;99336;-85
2021/06/02 03:24:24;;;;;;;15.80;10.40;;;;;;;13.75;75.93;100874.91;3552746;81;33438;-86
2021/06/02 03:29:36;;;;;;;17.87;10.75;;;;;;;13.77;75.65;100876.68;3547564;81;99288;-85
2021/06/02 03:35:22;;;;;;;19.67;11.70;;;;;;;13.83;75.78;100884.81;3555392;81;33245;-84
2021/06/02 03:40:54;;;;;;;16.45;10.40;;;;;;;13.83;75.78;100884.81;3532126;81;99780;-86
2021/06/02 03:46:35;;;;;;;18.07;11.28;;;;;;;13.88;75.52;100898.28;3564150;81;33896;-86
2021/06/02 03:52:05;;;;;;;17.55;10.53;;;;;;;13.90;75.58;100897.90;3545504;81;99373;-85
2021/06/02 03:57:40;;;;;;;19.17;10.98;;;;;;;14.01;75.22;100894.59;3563604;81;33354;-86
2021/06/02 04:03:05;;;;;;;18.82;9.95;;;;;;;14.01;75.22;100894.59;3558885;81;34559;-84
2021/06/02 04:08:45;;;;;;;17.55;11.12;;;;;;;14.09;75.23;100897.58;3548543;80;99396;-85
2021/06/02 04:14:03;;;;;;;18.48;9.75;;;;;;;14.26;75.02;100910.14;3480674;81;33953;-86
2021/06/02 04:19:11;;;;;;;19.07;9.80;;;;;;;14.26;75.02;100910.14;3478958;83;98944;-84
2021/06/02 04:24:15;;;;;;;19.15;9.70;;;;;;;14.30;74.71;100909.58;3390733;85;33302;-84
2021/06/02 04:29:27;;;;;;;17.92;9.45;;;;;;;14.35;74.65;100916.70;3460372;83;99362;-89
2021/06/02 04:34:29;;;;;;;15.45;9.03;;;;;;;14.44;74.61;100917.91;3416529;84;33678;-84
2021/06/02 04:39:37;;;;;;;16.00;9.38;;;;;;;14.36;74.37;100901.09;3466934;82;99386;-85
2021/06/02 04:44:38;;;;;;;16.02;8.73;;;;;;;14.62;73.99;100922.13;3468880;82;33274;-85
2021/06/02 04:50:04;;;;;;;15.03;7.90;;;;;;;14.62;73.99;100922.13;3461705;82;99319;-86
2021/06/02 04:55:49;;;;;;;13.27;6.57;;;;;;;14.68;73.69;100936.60;3475955;82;25777;-85
2021/06/02 05:01:10;;;;;;;17.15;7.35;;;;;;;14.75;73.35;100940.77;3446800;83;99483;-83
2021/06/02 05:06:26;;;;;;;17.15;7.78;;;;;;;14.84;73.08;100944.54;3471482;83;33792;-83
2021/06/02 05:12:24;;;;;;;16.02;8.03;;;;;;;14.84;72.68;100936.23;3468567;81;98744;-84
2021/06/02 05:17:59;;;;;;;14.85;7.92;;;;;;;15.05;72.52;100958.44;3533471;82;33393;-86
2021/06/02 05:23:33;;;;;;;13.93;7.60;;;;;;;15.18;72.11;100973.49;3448648;83;33825;-84
2021/06/02 05:29:09;;;;;;;17.60;7.28;;;;;;;15.31;71.44;100972.72;3521900;82;99231;-83
2021/06/02 05:34:24;;;;;;;14.43;7.70;;;;;;;15.49;71.72;100986.02;3522816;82;25769;-82
2021/06/02 05:39:50;;;;;;;15.30;7.70;;;;;;;15.66;71.26;100992.17;3478965;83;99141;-82
2021/06/02 05:45:30;;;;;;;18.95;7.17;;;;;;;15.88;71.39;100997.91;3481031;83;25748;-83
2021/06/02 05:50:45;;;;;;;12.93;6.67;;;;;;;16.11;70.85;101005.20;3422885;82;99345;-83
2021/06/02 05:56:36;;;;;;;19.42;7.50;;;;;;;16.36;70.40;101009.29;3435529;84;33255;-84
2021/06/02 06:02:20;;;;;;;14.05;7.35;;;;;;;16.60;70.34;101012.02;3427352;84;98765;-84
2021/06/02 06:08:19;;;;;;;18.50;7.40;;;;;;;16.85;69.24;101016.84;3438584;83;33356;-87
2021/06/02 06:13:54;;;;;;;14.63;7.10;;;;;;;17.08;68.57;101007.98;3418313;84;33260;-84
2021/06/02 06:19:28;;;;;;;13.70;7.75;;;;;;;17.42;68.01;101011.16;3414758;84;99065;-85
2021/06/02 06:24:40;;;;;;;16.65;8.13;;;;;;;17.64;66.86;101022.91;3505442;82;33286;-86
2021/06/02 06:30:04;;;;;;;12.70;6.53;;;;;;;17.81;65.83;101024.16;3504394;82;99182;-85
2021/06/02 06:35:09;;;;;;;15.23;6.87;;;;;;;17.96;65.61;101028.99;3505121;82;33848;-87
2021/06/02 06:40:18;;;;;;;16.12;8.50;;;;;;;18.34;65.37;101031.42;3496566;81;99332;-85
2021/06/02 06:45:32;;;;;;;19.95;6.70;;;;;;;18.63;65.27;101036.86;3484131;82;33840;-84
2021/06/02 06:50:33;;;;;;;12.78;7.42;;;;;;;19.04;64.51;101040.32;3478450;82;99332;-86
2021/06/02 06:55:38;;;;;;;12.40;7.97;;;;;;;19.41;63.29;101039.41;3509658;82;33310;-85
2021/06/02 07:00:39;;;;;;;16.87;7.40;;;;;;;19.80;60.37;101043.17;3505750;81;99104;-83
2021/06/02 07:05:41;;;;;;;13.45;7.37;;;;;;;20.04;58.34;101043.94;3498725;82;33280;-87
2021/06/02 07:10:42;;;;;;;15.80;8.73;;;;;;;20.38;59.78;101041.76;3506389;82;99095;-86
2021/06/02 07:15:45;;;;;;;13.57;8.10;;;;;;;20.72;58.85;101045.84;3510386;82;32308;-86
2021/06/02 07:20:52;;;;;;;17.07;7.47;;;;;;;20.99;57.45;101047.13;3510903;82;99454;-85
2021/06/02 07:25:53;;;;;;;16.32;9.08;;;;;;;21.27;57.09;101046.48;3508890;82;26331;-85
2021/06/02 07:30:53;;;;;;;19.83;8.30;;;;;;;21.31;54.29;101038.17;3513131;82;99076;-84
2021/06/02 07:35:54;;;;;;;13.73;7.73;;;;;;;21.44;55.61;101043.29;3509838;81;29566;-85
2021/06/02 07:40:56;;;;;;;15.40;7.50;;;;;;;21.77;54.92;101042.11;3517226;82;98996;-84
2021/06/02 07:46:01;;;;;;;10.03;6.17;;;;;;;22.27;54.74;101054.22;3509467;82;31411;-86
2021/06/02 07:51:02;;;;;;;16.23;7.57;;;;;;;22.59;52.73;101055.56;3513568;82;98809;-84
2021/06/02 07:56:03;;;;;;;15.43;8.15;;;;;;;22.92;52.59;101051.39;3510295;82;31780;-85
2021/06/02 08:01:09;;;;;;;17.52;8.28;;;;;;;23.30;51.42;101057.28;3511154;82;98763;-86
2021/06/02 08:06:09;;;;;;;;;;;;;;;23.61;50.31;101063.92;3516288;82;26391;-86
2021/06/02 08:11:12;;;;;;;11.83;5.87;;;;;;;24.03;45.23;101067.37;3452691;82;84865;-85
2021/06/02 08:16:15;;;;;;;12.23;6.78;;;;;;;24.10;47.93;101075.56;3467144;82;33723;-84
2021/06/02 08:21:23;;;;;;;12.63;6.30;;;;;;;24.63;43.90;101086.55;3402960;84;99264;-84
2021/06/02 08:26:33;;;;;;;10.78;6.12;;;;;;;24.62;44.38;101083.58;3412676;83;25872;-88
2021/06/02 08:31:34;;;;;;;12.58;6.70;;;;;;;24.71;43.88;101089.91;3408703;84;99261;-84
2021/06/02 08:36:40;;;;;;;13.08;5.40;;;;;;;25.27;43.72;101080.14;3425797;84;34174;-85
2021/06/02 08:41:42;;;;;;;12.78;6.50;;;;;;;25.65;43.41;101083.45;3395508;83;98769;-85
2021/06/02 08:46:45;;;;;;;11.45;5.87;;;;;;;25.74;42.55;101086.92;3409261;84;25985;-88
2021/06/02 08:51:46;;;;;;;11.48;5.15;;;;;;;26.40;40.47;101088.98;3406952;84;99313;-85
2021/06/02 08:56:48;;;;;;;8.80;3.98;;;;;;;26.90;38.53;101084.13;3418562;83;33296;-86
2021/06/02 09:01:50;;;;;;;9.35;4.28;;;;;;;27.18;37.40;101084.28;3409480;84;98917;-84
2021/06/02 09:06:51;;;;;;;10.72;4.67;;;;;;;27.74;37.54;101093.63;3414826;84;26069;-83
2021/06/02 09:11:58;;;;;;;10.88;5.40;;;;;;;27.94;35.79;101090.26;3391031;84;98978;-88
2021/06/02 09:17:02;;;;;;;9.45;4.35;;;;;;;27.50;34.65;101106.95;3389174;85;25717;-84
2021/06/02 09:22:05;;;;;;;;;;;;;;;27.75;36.21;101103.71;3404999;85;99070;-93
2021/06/02 09:27:09;;;;;;;9.58;4.67;;;;;;;27.72;33.17;101107.48;3400338;83;25341;-89
2021/06/02 09:32:10;;;;;;;12.55;5.40;;;;;;;27.69;34.46;101109.84;3394673;84;98646;-85
2021/06/02 09:37:15;;;;;;;9.25;4.60;;;;;;;27.27;35.14;101109.06;3390853;85;33724;-87
2021/06/02 09:42:27;;;;;;;11.08;4.72;;;;;;;27.32;34.95;101110.45;3376431;84;98494;-87
2021/06/02 09:47:47;;;;;;;61.18;12.43;;;;;;;27.41;35.23;101109.02;3410045;85;26587;-88
2021/06/02 09:52:55;;;;;;;10.93;4.30;;;;;;;27.68;34.46;101119.59;3405775;85;25841;-86
2021/06/02 09:58:14;;;;;;;10.17;4.80;;;;;;;27.66;34.75;101118.50;3419111;84;99189;-87
2021/06/02 10:03:27;;;;;;;8.95;3.85;;;;;;;27.16;33.63;101120.05;3523222;82;25853;-92
2021/06/02 10:08:35;;;;;;;13.95;4.72;;;;;;;26.88;33.93;101112.08;3509400;82;99069;-83
2021/06/02 10:13:39;;;;;;;33.38;6.35;;;;;;;26.62;34.46;101118.67;3505860;80;25788;-89
2021/06/02 10:18:45;;;;;;;23.90;7.33;;;;;;;26.80;33.91;101109.42;3519330;82;98958;-86
2021/06/02 10:23:46;;;;;;;8.25;4.00;;;;;;;26.64;34.04;101120.39;3514017;82;25821;-85
2021/06/02 10:28:49;;;;;;;16.10;5.42;;;;;;;26.48;34.46;101130.55;3514296;81;98965;-85
2021/06/02 10:33:50;;;;;;;12.13;3.90;;;;;;;26.66;34.71;101122.75;3521858;82;25703;-84
2021/06/02 10:39:01;;;;;;;20.88;5.28;;;;;;;26.87;33.81;101128.23;3515583;81;99304;-85
2021/06/02 10:44:09;;;;;;;18.23;4.42;;;;;;;26.81;34.04;101130.12;3492147;81;26667;-89
2021/06/02 10:49:10;;;;;;;8.65;3.65;;;;;;;27.18;32.47;101128.86;3510078;82;99402;-84
2021/06/02 10:54:21;;;;;;;10.08;3.45;;;;;;;27.60;32.84;101126.87;3520901;81;33249;-83
2021/06/02 10:59:40;;;;;;;9.20;3.10;;;;;;;27.81;32.87;101119.42;3503735;81;99021;-85
2021/06/02 11:05:07;;;;;;;15.05;3.02;;;;;;;28.09;31.26;101117.39;3516333;82;25784;-87
2021/06/02 11:10:14;;;;;;;8.83;3.08;;;;;;;28.14;31.34;101128.67;3502973;82;99483;-85
2021/06/02 11:15:46;;;;;;;5.53;2.35;;;;;;;28.36;31.13;101135.63;3520580;82;25926;-89
2021/06/02 11:21:02;;;;;;;13.68;3.87;;;;;;;28.65;29.60;101136.37;3511613;82;98877;-89
2021/06/02 11:26:35;;;;;;;5.67;2.92;;;;;;;28.27;29.31;101137.09;3535946;82;26594;-88
2021/06/02 11:31:42;;;;;;;4.95;2.85;;;;;;;28.68;29.39;101130.55;3515349;80;98976;-90
2021/06/02 11:37:02;;;;;;;9.95;3.10;;;;;;;29.14;30.00;101134.55;3539659;81;26080;-85
2021/06/02 11:42:13;;;;;;;7.50;3.05;;;;;;;29.67;29.74;101125.95;3512242;82;98602;-84
2021/06/02 11:47:18;;;;;;;5.80;2.50;;;;;;;30.20;29.03;101130.80;3526975;80;26450;-90
2021/06/02 11:52:21;;;;;;;7.22;2.75;;;;;;;30.41;28.85;101123.20;3527783;82;98596;-83
2021/06/02 11:57:32;;;;;;;10.18;3.22;;;;;;;30.50;28.48;101120.86;3531942;81;25822;-84
2021/06/02 12:03:28;;;;;;;6.87;2.90;;;;;;;30.69;26.97;101117.91;3631882;78;31667;-80
2021/06/02 12:08:29;;;;;;;14.13;3.58;;;;;;;30.60;27.87;101121.66;3611990;77;99386;-82
2021/06/02 12:13:34;;;;;;;5.35;2.72;;;;;;;30.73;27.13;101117.06;3618745;79;32322;-85
2021/06/02 12:18:43;;;;;;;8.90;3.02;;;;;;;29.95;27.18;101131.42;3617823;78;98977;-84
2021/06/02 12:24:00;;;;;;;4.17;2.80;;;;;;;29.94;27.83;101119.93;3638839;78;25958;-86
2021/06/02 12:29:07;;;;;;;7.80;2.95;;;;;;;30.32;28.09;101123.36;3591116;78;98879;-86
2021/06/02 12:34:23;;;;;;;6.22;2.95;;;;;;;29.96;27.87;101130.94;3542586;81;25859;-83
2021/06/02 12:39:30;;;;;;;7.35;3.20;;;;;;;29.92;27.18;101132.42;3544637;80;99383;-87
2021/06/02 12:44:37;;;;;;;6.62;3.08;;;;;;;28.72;26.98;101136.78;3592741;81;25929;-88
2021/06/02 12:49:43;;;;;;;6.37;3.05;;;;;;;28.42;28.80;101127.27;3580167;79;99129;-89
2021/06/02 12:54:44;;;;;;;7.17;3.27;;;;;;;28.07;27.76;101129.04;3580673;79;26501;-86
2021/06/02 12:59:45;;;;;;;6.78;3.12;;;;;;;27.23;28.49;101133.08;3578034;80;98904;-87
2021/06/02 13:04:46;;;;;;;11.95;3.02;;;;;;;26.87;29.45;101122.58;3569816;81;31662;-86
2021/06/02 13:09:47;;;;;;;5.70;2.83;;;;;;;27.44;30.45;101087.64;3567818;81;99033;-87
2021/06/02 13:14:48;;;;;;;5.45;2.77;;;;;;;27.58;29.51;101109.57;3572090;81;31740;-86
2021/06/02 13:19:52;;;;;;;4.97;2.50;;;;;;;27.79;28.84;101120.54;3552643;80;98797;-86
2021/06/02 13:25:03;;;;;;;6.80;3.37;;;;;;;27.76;29.43;101123.66;3567601;81;26550;-85
2021/06/02 13:30:10;;;;;;;6.35;3.20;;;;;;;27.83;28.87;101129.00;3557715;80;98931;-87
2021/06/02 13:35:18;;;;;;;6.37;3.15;;;;;;;27.49;29.61;101130.03;3564280;81;26107;-89
2021/06/02 13:40:21;;;;;;;7.40;3.02;;;;;;;27.60;29.29;101126.87;3547407;81;99009;-86
2021/06/02 13:45:54;;;;;;;6.47;3.02;;;;;;;28.05;28.64;101126.68;3560469;81;25971;-86
2021/06/02 13:51:16;;;;;;;6.15;2.65;;;;;;;27.45;28.04;101123.75;3561709;81;98960;-85
2021/06/02 13:56:17;;;;;;;19.42;4.15;;;;;;;27.13;28.21;101136.53;3558244;81;26691;-83
2021/06/02 14:01:26;;;;;;;5.53;2.83;;;;;;;26.65;29.20;101125.42;3561081;81;99366;-86
2021/06/02 14:06:27;;;;;;;11.22;3.20;;;;;;;26.90;29.98;101133.56;3571598;81;25831;-84
2021/06/02 14:11:28;;;;;;;9.13;3.35;;;;;;;26.71;30.30;101140.48;3557875;81;99000;-87
2021/06/02 14:16:30;;;;;;;12.70;4.00;;;;;;;26.94;30.11;101141.26;3559127;81;31717;-86
2021/06/02 14:21:34;;;;;;;9.18;3.60;;;;;;;26.79;30.21;101133.25;3559886;79;99028;-86
2021/06/02 14:26:36;;;;;;;8.18;3.47;;;;;;;26.78;30.30;101138.75;3569936;81;25882;-84
2021/06/02 14:31:39;;;;;;;9.28;3.83;;;;;;;26.48;30.26;101130.55;3552224;81;98634;-85
2021/06/02 14:36:43;;;;;;;7.65;3.22;;;;;;;26.18;30.19;101141.94;3562682;81;28776;-91
2021/06/02 14:41:46;;;;;;;8.13;3.62;;;;;;;25.96;31.22;101143.45;3556815;81;98383;-86
2021/06/02 14:46:47;;;;;;;11.68;3.42;;;;;;;25.95;32.03;101137.66;3569241;81;26182;-85
2021/06/02 14:51:48;;;;;;;5.67;3.10;;;;;;;25.95;31.88;101137.66;3564326;81;98598;-83
2021/06/02 14:56:49;;;;;;;9.00;3.52;;;;;;;25.69;31.60;101141.10;3568701;81;31717;-83
2021/06/02 15:01:51;;;;;;;9.70;3.37;;;;;;;25.20;31.29;101146.61;3565880;81;98817;-84
2021/06/02 15:06:52;;;;;;;7.87;3.22;;;;;;;24.91;31.35;101151.69;3575643;80;32453;-86
2021/06/02 15:11:53;;;;;;;8.90;3.98;;;;;;;24.68;31.87;101148.55;3562611;80;98425;-85
2021/06/02 15:16:58;;;;;;;7.50;3.62;;;;;;;24.52;32.22;101152.27;3566283;81;31745;-86
2021/06/02 15:21:58;;;;;;;6.13;2.90;;;;;;;24.46;32.13;101154.08;3564189;81;98826;-86
2021/06/02 15:27:03;;;;;;;7.85;3.15;;;;;;;24.49;33.00;101153.80;3572613;80;31649;-86
2021/06/02 15:32:06;;;;;;;6.28;3.20;;;;;;;24.54;33.07;101145.58;3561500;80;98726;-84
2021/06/02 15:37:14;;;;;;;6.85;3.00;;;;;;;24.70;33.06;101138.41;3573764;80;31665;-84
2021/06/02 15:42:17;;;;;;;8.90;3.50;;;;;;;24.65;33.11;101155.87;3558184;80;99071;-85
2021/06/02 15:47:23;;;;;;;4.92;2.85;;;;;;;24.64;33.35;101150.69;3564367;80;26020;-94
2021/06/02 15:52:34;;;;;;;5.70;3.33;;;;;;;24.37;33.10;101153.21;3571466;80;99171;-84
2021/06/02 15:57:37;;;;;;;11.15;3.55;;;;;;;24.09;33.34;101158.38;3568299;80;25922;-83
2021/06/02 16:02:40;;;;;;;9.33;3.02;;;;;;;23.91;33.43;101156.73;3565052;81;98586;-80
2021/06/02 16:07:41;;;;;;;4.40;2.90;;;;;;;23.74;34.06;101153.84;3573808;81;99117;-83
2021/06/02 16:12:45;;;;;;;7.90;3.37;;;;;;;23.60;34.27;101157.11;3575022;81;32307;-86
2021/06/02 16:17:45;;;;;;;21.25;4.80;;;;;;;23.22;33.90;101151.41;3571607;80;98815;-84
2021/06/02 16:22:47;;;;;;;8.13;3.58;;;;;;;23.01;35.03;101156.22;3606935;80;31752;-86
2021/06/02 16:27:51;;;;;;;8.17;3.43;;;;;;;23.04;35.35;101148.93;3600882;80;103729;-88
2021/06/02 16:32:52;;;;;;;8.88;3.27;;;;;;;22.99;35.64;101152.28;3603275;80;25717;-90
2021/06/02 16:37:53;;;;;;;9.27;3.63;;;;;;;22.92;35.66;101153.26;3605807;80;98989;-83
2021/06/02 16:42:54;;;;;;;9.18;3.50;;;;;;;22.64;35.85;101151.23;3605525;80;31696;-84
2021/06/02 16:47:54;;;;;;;8.07;3.40;;;;;;;22.59;35.49;101155.17;3596237;80;98903;-84
2021/06/02 16:52:58;;;;;;;7.87;3.47;;;;;;;22.52;36.15;101156.77;3599429;80;29893;-86
2021/06/02 16:58:01;;;;;;;8.10;3.12;;;;;;;22.33;35.84;101156.22;3597773;78;99005;-84
2021/06/02 17:03:02;;;;;;;7.85;3.40;;;;;;;22.10;36.41;101158.61;3595953;80;31917;-84
2021/06/02 17:08:05;;;;;;;9.18;3.67;;;;;;;22.05;36.71;101157.73;3591236;81;99020;-85
2021/06/02 17:13:06;;;;;;;10.63;3.58;;;;;;;21.95;36.29;101157.36;3593973;81;26166;-84
2021/06/02 17:18:11;;;;;;;8.48;3.50;;;;;;;21.80;36.28;101163.12;3597334;81;98988;-86
2021/06/02 17:23:12;;;;;;;7.75;3.40;;;;;;;21.77;37.38;101168.21;3600127;80;26512;-85
2021/06/02 17:28:13;;;;;;;7.87;2.95;;;;;;;21.65;36.50;101171.66;3602466;79;98758;-85
2021/06/02 17:33:14;;;;;;;6.90;3.50;;;;;;;21.55;36.99;101176.88;3596732;79;31673;-84
2021/06/02 17:38:18;;;;;;;8.33;3.30;;;;;;;21.46;37.10;101176.67;3602285;79;98444;-83
2021/06/02 17:43:18;;;;;;;6.60;2.77;;;;;;;21.36;37.26;101180.48;3598447;81;31694;-85
2021/06/02 17:48:33;;;;;;;7.87;3.50;;;;;;;21.19;37.31;101188.64;3577580;79;99369;-85
2021/06/02 17:53:37;;;;;;;11.18;3.20;;;;;;;21.04;37.57;101192.93;3571930;79;31648;-86
2021/06/02 17:58:41;;;;;;;9.65;2.98;;;;;;;20.91;38.05;101203.78;3592951;81;99292;-85
2021/06/02 18:03:44;;;;;;;7.85;3.30;;;;;;;20.79;38.18;101207.19;3578452;81;32345;-85
2021/06/02 18:08:46;;;;;;;7.08;2.67;;;;;;;20.65;38.43;101209.63;3549736;80;98931;-83
2021/06/02 18:13:48;;;;;;;14.73;3.52;;;;;;;20.53;38.55;101206.05;3567041;81;32471;-83
2021/06/02 18:18:54;;;;;;;6.67;2.65;;;;;;;20.40;38.76;101212.08;3561231;81;99059;-85
2021/06/02 18:23:58;;;;;;;10.23;3.47;;;;;;;20.28;39.09;101218.23;3568708;81;26347;-86
2021/06/02 18:29:01;;;;;;;8.93;3.27;;;;;;;20.19;39.86;101221.39;3563245;81;99357;-84
2021/06/02 18:34:03;;;;;;;8.20;3.47;;;;;;;20.01;39.66;101227.84;3559570;80;31645;-84
2021/06/02 18:39:05;;;;;;;9.08;3.27;;;;;;;19.86;40.27;101228.66;3556783;81;98909;-83
2021/06/02 18:44:08;;;;;;;8.20;3.12;;;;;;;19.73;40.79;101234.59;3564923;81;31706;-83
2021/06/02 18:49:12;;;;;;;10.82;3.35;;;;;;;19.56;41.75;101238.42;3563535;80;98943;-84
2021/06/02 18:54:14;;;;;;;6.72;3.10;;;;;;;19.35;42.04;101249.06;3557492;80;31675;-83
2021/06/02 18:59:15;;;;;;;7.03;3.08;;;;;;;19.15;42.50;101251.66;3556064;81;99378;-83
2021/06/02 19:04:20;;;;;;;10.63;3.10;;;;;;;19.00;42.54;101260.56;3585552;79;31495;-83
2021/06/02 19:09:21;;;;;;;9.50;3.40;;;;;;;18.86;43.20;101266.30;3596481;80;98718;-84
2021/06/02 19:14:22;;;;;;;9.63;3.43;;;;;;;18.65;43.23;101274.23;3597766;80;27898;-83
2021/06/02 19:19:22;;;;;;;8.17;3.47;;;;;;;18.46;43.60;101276.19;3600636;80;98574;-86
2021/06/02 19:24:23;;;;;;;7.78;3.50;;;;;;;18.31;44.15;101283.03;3600979;80;30192;-84
2021/06/02 19:29:24;;;;;;;9.80;3.97;;;;;;;18.12;44.39;101294.71;3608377;80;98626;-85
2021/06/02 19:34:25;;;;;;;12.20;3.77;;;;;;;17.97;44.75;101295.98;3621226;80;25917;-84
2021/06/02 19:39:25;;;;;;;9.60;3.77;;;;;;;17.85;44.93;101299.82;3601359;80;98706;-84
2021/06/02 19:44:26;;;;;;;9.53;4.17;;;;;;;17.75;45.20;101305.64;3604389;80;34931;-86
2021/06/02 19:49:27;;;;;;;14.98;4.10;;;;;;;17.67;45.34;101299.91;3605542;80;99331;-85
2021/06/02 19:54:31;;;;;;;19.23;4.78;;;;;;;17.58;45.63;101302.91;3611908;80;35378;-83
2021/06/02 19:59:32;;;;;;;11.10;4.87;;;;;;;17.48;45.87;101307.33;3606233;77;98997;-85
2021/06/02 20:04:34;;;;;;;9.73;4.12;;;;;;;17.38;46.27;101310.92;3603122;80;34867;-83
2021/06/02 20:09:38;;;;;;;8.90;3.80;;;;;;;17.26;46.41;101321.65;3591795;80;99316;-84
2021/06/02 20:14:43;;;;;;;10.70;4.10;;;;;;;17.11;47.06;101329.23;3592355;80;35110;-83
2021/06/02 20:19:44;;;;;;;14.87;4.92;;;;;;;16.94;47.49;101327.88;3590305;78;99229;-85
2021/06/02 20:24:45;;;;;;;13.22;5.20;;;;;;;16.81;48.10;101335.81;3596219;80;33298;-85
2021/06/02 20:29:47;;;;;;;12.83;5.07;;;;;;;16.67;48.72;101332.23;3589739;80;99494;-85
2021/06/02 20:34:49;;;;;;;8.47;4.20;;;;;;;16.55;48.66;101336.77;3588373;80;33193;-84
2021/06/02 20:39:50;;;;;;;9.47;5.07;;;;;;;16.46;49.20;101339.16;3584009;80;98845;-84
2021/06/02 20:44:51;;;;;;;10.55;4.60;;;;;;;16.35;49.52;101332.76;3597124;79;35300;-84
2021/06/02 20:49:53;;;;;;;9.10;4.20;;;;;;;16.26;49.44;101335.11;3588046;79;99342;-84
2021/06/02 20:54:54;;;;;;;10.20;4.80;;;;;;;16.18;50.12;101337.68;3592001;80;33478;-84
2021/06/02 20:59:55;;;;;;;8.70;4.50;;;;;;;16.09;50.38;101340.02;3591483;79;99089;-84
2021/06/02 21:04:56;;;;;;;10.00;4.10;;;;;;;16.01;50.72;101338.39;3601471;79;29279;-83
2021/06/02 21:09:58;;;;;;;10.50;4.30;;;;;;;15.91;50.96;101344.12;3586373;79;99342;-84
2021/06/02 21:15:03;;;;;;;9.47;4.40;;;;;;;15.82;51.35;101342.89;3599014;79;29998;-84
2021/06/02 21:20:06;;;;;;;9.58;4.87;;;;;;;15.64;51.42;101335.87;3584854;78;98964;-84
2021/06/02 21:25:07;;;;;;;10.20;4.67;;;;;;;15.62;52.09;101349.92;3583287;80;36258;-85
2021/06/02 21:30:09;;;;;;;10.27;4.53;;;;;;;15.55;52.31;101358.22;3582335;80;99120;-83
2021/06/02 21:35:11;;;;;;;10.25;4.62;;;;;;;15.45;52.45;101349.23;3584904;80;34850;-84
2021/06/02 21:40:13;;;;;;;10.78;5.12;;;;;;;15.38;52.91;101357.53;3577419;79;99032;-84
2021/06/02 21:45:14;;;;;;;9.80;4.83;;;;;;;15.30;52.96;101360.00;3589502;80;35465;-84
2021/06/02 21:50:15;;;;;;;10.67;4.17;;;;;;;15.23;53.54;101366.90;3589705;79;98816;-84
2021/06/02 21:55:16;;;;;;;9.98;4.65;;;;;;;15.15;53.70;101372.98;3594146;79;33796;-84
2021/06/02 22:00:38;;;;;;;10.70;4.90;;;;;;;15.08;54.03;101370.73;3588598;79;98918;-84
2021/06/02 22:05:40;;;;;;;8.23;4.17;;;;;;;15.00;54.55;101374.65;3605295;80;34859;-83
2021/06/02 22:10:43;;;;;;;11.08;4.92;;;;;;;14.89;54.88;101384.24;3611035;80;98933;-83
2021/06/02 22:15:46;;;;;;;14.45;5.20;;;;;;;14.78;55.14;101378.41;3609477;80;34843;-85
2021/06/02 22:20:49;;;;;;;11.97;4.87;;;;;;;14.69;55.94;101377.35;3600802;80;99069;-83
2021/06/02 22:25:50;;;;;;;11.08;4.90;;;;;;;14.65;55.78;101381.25;3609363;79;35406;-83
2021/06/02 22:30:52;;;;;;;11.03;4.67;;;;;;;14.59;55.95;101382.19;3605944;80;99010;-82
2021/06/02 22:35:54;;;;;;;9.43;4.60;;;;;;;14.55;55.83;101380.58;3619494;80;31542;-83
2021/06/02 22:40:55;;;;;;;10.98;4.95;;;;;;;14.49;56.14;101371.02;3612726;80;98580;-83
2021/06/02 22:45:56;;;;;;;10.70;5.17;;;;;;;14.43;56.30;101380.25;3619902;80;29810;-83
2021/06/02 22:50:57;;;;;;;13.50;5.17;;;;;;;14.37;56.18;101377.61;3612517;79;99213;-83
2021/06/02 22:55:59;;;;;;;11.03;4.57;;;;;;;14.28;56.76;101374.34;3618413;80;31563;-83
2021/06/02 23:00:59;;;;;;;22.40;5.33;;;;;;;14.21;57.07;101379.00;3607766;80;99094;-83
2021/06/02 23:06:00;;;;;;;9.57;4.97;;;;;;;14.14;57.04;101384.43;3598063;80;28339;-83
2021/06/02 23:11:01;;;;;;;11.20;5.23;;;;;;;14.08;57.13;101382.59;3577396;80;98937;-83
2021/06/02 23:16:02;;;;;;;10.57;4.60;;;;;;;14.04;57.25;101384.52;3589363;80;26496;-83
2021/06/02 23:21:04;;;;;;;11.00;5.10;;;;;;;14.00;57.44;101387.05;3585931;81;99134;-81
2021/06/02 23:26:05;;;;;;;13.37;5.73;;;;;;;13.91;57.83;101386.52;3589771;81;32472;-84
2021/06/02 23:31:06;;;;;;;10.07;5.13;;;;;;;13.85;57.93;101388.03;3582803;78;98966;-83
2021/06/02 23:36:07;;;;;;;10.37;5.97;;;;;;;13.78;58.30;101396.22;3586123;81;33085;-83
2021/06/02 23:41:08;;;;;;;9.17;5.33;;;;;;;13.71;58.52;101392.78;3582688;80;98826;-84
2021/06/02 23:46:09;;;;;;;10.70;4.83;;;;;;;13.64;58.54;101397.42;3591212;80;33066;-83